Time;durP1;ratioP1;P1;durP2;ratioP2;P2;SDS_P1;SDS_P2;PMS_P1;PMS_P2;Temp;Humidity;BMP_temperature;BMP_pressure;BME280_temperature;BME280_humidity;BME280_pressure;Samples;Min_cycle;Max_cycle;Signal;HPM_P1;HPM_P2
2023/05/09 00:02:07;;;;;;;;;;;13.50;99.90;;;;;;5096558;28;19981;-61
2023/05/09 00:04:34;;;;;;;;;;;13.50;99.90;;;;;;5096635;28;19985;-61
2023/05/09 00:07:00;;;;;;;;;;;13.40;99.90;;;;;;5096969;28;20008;-62
2023/05/09 00:09:25;;;;;;;;;;;13.40;99.90;;;;;;5096634;28;20447;-60
2023/05/09 00:11:51;;;;;;;;;;;13.40;99.90;;;;;;5096925;28;20032;-61
2023/05/09 00:14:17;;;;;;;;;;;13.30;99.90;;;;;;5096781;28;19985;-60
2023/05/09 00:16:46;;;;;;;;;;;13.30;99.90;;;;;;5096439;28;19981;-62
2023/05/09 00:19:12;;;;;;;;;;;13.20;99.90;;;;;;5096494;28;20000;-62
2023/05/09 00:21:37;;;;;;;;;;;13.10;99.90;;;;;;5095723;28;19985;-62
2023/05/09 00:24:03;;;;;;;;;;;13.10;99.90;;;;;;5096694;28;20423;-61
2023/05/09 00:26:29;;;;;;;;;;;13.10;99.90;;;;;;5096395;28;19988;-62
2023/05/09 00:28:54;;;;;;;;;;;13.10;99.90;;;;;;5096241;28;20460;-61
2023/05/09 00:31:20;;;;;;;;;;;13.10;99.90;;;;;;5096094;28;19992;-60
2023/05/09 00:33:45;;;;;;;;;;;13.10;99.90;;;;;;5096523;28;19985;-61
2023/05/09 00:36:11;;;;;;;;;;;13.10;99.90;;;;;;5095980;28;20035;-61
2023/05/09 00:38:37;;;;;;;;;;;13.00;99.90;;;;;;5096334;28;20013;-60
2023/05/09 00:41:02;;;;;;;;;;;13.00;99.90;;;;;;5096388;28;19985;-61
2023/05/09 00:43:28;;;;;;;;;;;13.00;99.90;;;;;;5096052;28;19981;-61
2023/05/09 00:45:54;;;;;;;;;;;12.90;99.90;;;;;;5095999;28;20075;-61
2023/05/09 00:48:20;;;;;;;;;;;12.80;99.90;;;;;;5095719;28;20021;-62
2023/05/09 00:50:51;;;;;;;;;;;12.80;99.90;;;;;;5095933;28;19988;-62
2023/05/09 00:53:17;;;;;;;;;;;12.80;99.90;;;;;;5095764;28;20471;-61
2023/05/09 00:55:43;;;;;;;;;;;12.80;99.90;;;;;;5096059;28;19985;-61
2023/05/09 00:58:08;;;;;;;;;;;12.80;99.90;;;;;;5095667;28;20005;-62
2023/05/09 01:00:34;;;;;;;;;;;12.80;99.90;;;;;;5095386;28;20004;-62
2023/05/09 01:02:59;;;;;;;;;;;12.70;99.90;;;;;;5095691;28;19988;-61
2023/05/09 01:05:28;;;;;;;;;;;12.70;99.90;;;;;;5095668;28;20134;-62
2023/05/09 01:07:53;;;;;;;;;;;12.60;99.90;;;;;;5095456;28;20423;-61
2023/05/09 01:10:22;;;;;;;;;;;12.60;99.90;;;;;;5095473;28;19992;-60
2023/05/09 01:12:53;;;;;;;;;;;12.50;99.90;;;;;;5095374;28;19989;-61
2023/05/09 01:15:31;;;;;;;;;;;12.50;99.90;;;;;;5095166;28;19982;-61
2023/05/09 01:18:02;;;;;;;;;;;12.50;99.90;;;;;;5095366;28;20004;-61
2023/05/09 01:20:38;;;;;;;;;;;12.40;99.90;;;;;;5095522;28;20008;-61
2023/05/09 01:23:16;;;;;;;;;;;12.40;99.90;;;;;;5095277;28;19981;-61
2023/05/09 01:25:56;;;;;;;;;;;12.40;99.90;;;;;;5095114;28;19985;-60
2023/05/09 01:28:31;;;;;;;;;;;12.30;99.90;;;;;;5095083;28;19985;-62
2023/05/09 01:30:57;;;;;;;;;;;12.30;99.90;;;;;;5094777;28;19987;-61
2023/05/09 01:33:23;;;;;;;;;;;12.20;99.90;;;;;;5095033;28;19984;-60
2023/05/09 01:35:50;;;;;;;;;;;12.20;99.90;;;;;;5095106;28;19987;-61
2023/05/09 01:38:17;;;;;;;;;;;12.20;99.90;;;;;;5094836;28;20426;-61
2023/05/09 01:40:43;;;;;;;;;;;12.20;99.90;;;;;;5094965;28;19981;-62
2023/05/09 01:43:10;;;;;;;;;;;12.20;99.90;;;;;;5095200;28;19985;-61
2023/05/09 01:45:37;;;;;;;;;;;12.10;99.90;;;;;;5094833;28;19993;-61
2023/05/09 01:48:04;;;;;;;;;;;12.10;99.90;;;;;;5094793;28;20004;-61
2023/05/09 01:50:30;;;;;;;;;;;12.10;99.90;;;;;;5095006;28;20088;-61
2023/05/09 01:52:57;;;;;;;;;;;12.10;99.90;;;;;;5094583;28;19988;-61
2023/05/09 01:55:25;;;;;;;;;;;12.10;99.90;;;;;;5094795;28;19981;-61
2023/05/09 01:57:52;;;;;;;;;;;12.10;99.90;;;;;;5094649;28;20005;-62
2023/05/09 02:00:18;;;;;;;;;;;12.00;99.90;;;;;;5094252;28;20044;-61
2023/05/09 02:02:44;;;;;;;;;;;12.00;99.90;;;;;;5094503;28;20042;-61
2023/05/09 02:05:10;;;;;;;;;;;11.90;99.90;;;;;;5094472;28;19985;-62
2023/05/09 02:07:36;;;;;;;;;;;11.90;99.90;;;;;;5094743;28;20008;-61
2023/05/09 02:10:02;;;;;;;;;;;11.90;99.90;;;;;;5094287;28;20440;-62
2023/05/09 02:12:27;;;;;;;;;;;11.90;99.90;;;;;;5094345;28;20083;-61
2023/05/09 02:14:53;;;;;;;;;;;11.80;99.90;;;;;;5094464;28;20021;-61
2023/05/09 02:17:20;;;;;;;;;;;11.80;99.90;;;;;;5094404;28;20035;-61
2023/05/09 02:19:45;;;;;;;;;;;11.70;99.90;;;;;;5094710;28;19992;-61
2023/05/09 02:22:11;;;;;;;;;;;11.80;99.90;;;;;;5094604;28;19989;-60
2023/05/09 02:24:37;;;;;;;;;;;11.70;99.90;;;;;;5094119;28;20030;-61
2023/05/09 02:27:03;;;;;;;;;;;11.80;99.90;;;;;;5094012;28;19988;-63
2023/05/09 02:29:39;;;;;;;;;;;11.80;99.90;;;;;;5094131;28;20035;-61
2023/05/09 02:32:10;;;;;;;;;;;11.70;99.90;;;;;;5093966;28;20016;-60
2023/05/09 02:34:36;;;;;;;;;;;11.70;99.90;;;;;;5094002;28;19985;-61
2023/05/09 02:37:02;;;;;;;;;;;11.50;99.90;;;;;;5093974;28;20060;-61
2023/05/09 02:39:27;;;;;;;;;;;11.50;99.90;;;;;;5093877;28;20013;-61
2023/05/09 02:41:53;;;;;;;;;;;11.50;99.90;;;;;;5093693;28;19985;-61
2023/05/09 02:44:19;;;;;;;;;;;11.40;99.90;;;;;;5093748;28;19992;-61
2023/05/09 02:46:44;;;;;;;;;;;11.40;99.90;;;;;;5093821;28;20029;-62
2023/05/09 02:49:10;;;;;;;;;;;11.50;99.90;;;;;;5094138;28;19984;-61
2023/05/09 02:51:35;;;;;;;;;;;11.60;99.90;;;;;;5093812;28;19988;-62
2023/05/09 02:54:02;;;;;;;;;;;11.60;99.90;;;;;;5093751;28;19992;-61
2023/05/09 02:56:27;;;;;;;;;;;11.60;99.90;;;;;;5093868;28;20390;-61
2023/05/09 02:58:53;;;;;;;;;;;11.70;99.90;;;;;;5093843;28;20008;-61
2023/05/09 03:01:18;;;;;;;;;;;11.70;99.90;;;;;;5093628;28;20448;-61
2023/05/09 03:03:44;;;;;;;;;;;11.70;99.90;;;;;;5093958;28;20379;-61
2023/05/09 03:06:10;;;;;;;;;;;11.60;99.90;;;;;;5093734;28;20072;-61
2023/05/09 03:08:35;;;;;;;;;;;11.70;99.90;;;;;;5093774;28;20028;-60
2023/05/09 03:11:01;;;;;;;;;;;11.70;99.90;;;;;;5093351;28;19993;-60
2023/05/09 03:13:27;;;;;;;;;;;11.70;99.90;;;;;;5093714;28;19985;-61
2023/05/09 03:15:52;;;;;;;;;;;11.80;99.90;;;;;;5093885;28;20088;-61
2023/05/09 03:18:18;;;;;;;;;;;11.80;99.90;;;;;;5093432;28;20001;-61
2023/05/09 03:20:43;;;;;;;;;;;11.90;99.90;;;;;;5093680;28;19985;-62
2023/05/09 03:23:09;;;;;;;;;;;11.90;99.90;;;;;;5093504;28;19981;-62
2023/05/09 03:25:34;;;;;;;;;;;11.90;99.90;;;;;;5093264;28;19982;-61
2023/05/09 03:28:00;;;;;;;;;;;11.90;99.90;;;;;;5093487;28;20043;-61
2023/05/09 03:30:26;;;;;;;;;;;11.80;99.90;;;;;;5093739;28;19996;-61
2023/05/09 03:32:51;;;;;;;;;;;11.80;99.90;;;;;;5093556;28;20461;-61
2023/05/09 03:35:17;;;;;;;;;;;11.80;99.90;;;;;;5093318;28;19984;-61
2023/05/09 03:37:42;;;;;;;;;;;11.80;99.90;;;;;;5093146;28;20024;-60
2023/05/09 03:40:08;;;;;;;;;;;11.80;99.90;;;;;;5093202;28;19981;-61
2023/05/09 03:42:34;;;;;;;;;;;11.80;99.90;;;;;;5093330;28;19981;-62
2023/05/09 03:45:00;;;;;;;;;;;11.80;99.90;;;;;;5093336;28;19981;-61
2023/05/09 03:47:25;;;;;;;;;;;11.90;99.90;;;;;;5093218;28;20046;-60
2023/05/09 03:49:52;;;;;;;;;;;11.90;99.90;;;;;;5093204;28;20042;-61
2023/05/09 03:52:17;;;;;;;;;;;11.90;99.90;;;;;;5093410;28;20080;-62
2023/05/09 03:54:43;;;;;;;;;;;11.90;99.90;;;;;;5093439;28;20092;-61
2023/05/09 03:57:08;;;;;;;;;;;12.00;99.90;;;;;;5094939;28;19985;-62
2023/05/09 03:59:34;;;;;;;;;;;12.10;99.90;;;;;;5097146;28;19993;-61
2023/05/09 04:02:00;;;;;;;;;;;12.00;99.90;;;;;;5096798;28;20436;-61
2023/05/09 04:04:26;;;;;;;;;;;12.00;99.90;;;;;;5096831;28;20355;-62
2023/05/09 04:06:51;;;;;;;;;;;12.00;99.90;;;;;;5096647;28;20439;-60
2023/05/09 04:09:17;;;;;;;;;;;12.00;99.90;;;;;;5096433;28;19992;-61
2023/05/09 04:11:43;;;;;;;;;;;11.90;99.90;;;;;;5096628;28;19982;-61
2023/05/09 04:14:08;;;;;;;;;;;11.90;99.90;;;;;;5096495;28;19989;-61
2023/05/09 04:16:34;;;;;;;;;;;11.80;99.90;;;;;;5096634;28;20093;-60
2023/05/09 04:19:00;;;;;;;;;;;11.80;99.90;;;;;;5096534;28;20005;-61
2023/05/09 04:21:25;;;;;;;;;;;11.80;99.90;;;;;;5096390;28;20410;-62
2023/05/09 04:23:51;;;;;;;;;;;11.90;99.90;;;;;;5096127;28;19985;-60
2023/05/09 04:26:17;;;;;;;;;;;11.90;99.90;;;;;;5096466;28;19987;-61
2023/05/09 04:28:42;;;;;;;;;;;12.00;99.90;;;;;;5095439;28;19989;-61
2023/05/09 04:31:08;;;;;;;;;;;12.00;99.90;;;;;;5095471;28;19985;-61
2023/05/09 04:33:34;;;;;;;;;;;11.90;99.90;;;;;;5095791;28;20507;-60
2023/05/09 04:36:00;;;;;;;;;;;11.90;99.90;;;;;;5095264;28;19997;-61
2023/05/09 04:38:26;;;;;;;;;;;11.90;99.90;;;;;;5095157;28;20383;-61
2023/05/09 04:40:52;;;;;;;;;;;11.90;99.90;;;;;;5095320;28;20346;-61
2023/05/09 04:43:17;;;;;;;;;;;12.00;99.90;;;;;;5095247;28;20080;-62
2023/05/09 04:45:43;;;;;;;;;;;12.00;99.90;;;;;;5095242;28;19981;-61
2023/05/09 04:48:09;;;;;;;;;;;12.10;99.90;;;;;;5094967;28;20025;-60
2023/05/09 04:50:35;;;;;;;;;;;12.10;99.90;;;;;;5095175;28;20027;-60
2023/05/09 04:53:00;;;;;;;;;;;12.10;99.90;;;;;;5094838;28;19988;-61
2023/05/09 04:55:26;;;;;;;;;;;12.10;99.90;;;;;;5095590;28;19988;-61
2023/05/09 04:57:51;;;;;;;;;;;12.10;99.90;;;;;;5095617;28;20005;-60
2023/05/09 05:00:18;;;;;;;;;;;12.10;99.90;;;;;;5094477;28;20106;-61
2023/05/09 05:02:43;;;;;;;;;;;12.20;99.90;;;;;;5095460;28;19988;-60
2023/05/09 05:05:09;;;;;;;;;;;12.20;99.90;;;;;;5093233;28;20394;-60
2023/05/09 05:07:35;;;;;;;;;;;12.20;99.90;;;;;;5092858;28;19981;-65
2023/05/09 05:10:00;;;;;;;;;;;12.30;99.90;;;;;;5095859;28;19985;-64
2023/05/09 05:12:26;;;;;;;;;;;12.30;99.90;;;;;;5095286;28;20432;-61
2023/05/09 05:14:52;;;;;;;;;;;12.30;99.90;;;;;;5095192;28;20347;-63
2023/05/09 05:17:17;;;;;;;;;;;12.40;99.90;;;;;;5094165;28;20016;-60
2023/05/09 05:19:43;;;;;;;;;;;12.40;99.90;;;;;;5095191;28;20003;-62
2023/05/09 05:22:08;;;;;;;;;;;12.60;99.90;;;;;;5094966;28;20080;-63
2023/05/09 05:24:34;;;;;;;;;;;12.70;99.90;;;;;;5095050;28;19989;-64
2023/05/09 05:27:00;;;;;;;;;;;12.80;99.90;;;;;;5094999;28;19988;-64
2023/05/09 05:29:25;;;;;;;;;;;12.80;99.90;;;;;;5094923;28;20075;-63
2023/05/09 05:31:51;;;;;;;;;;;12.90;99.90;;;;;;5094800;28;19993;-63
2023/05/09 05:34:16;;;;;;;;;;;13.00;99.90;;;;;;5095039;28;19981;-63
2023/05/09 05:36:42;;;;;;;;;;;13.10;99.90;;;;;;5094375;28;20453;-64
2023/05/09 05:39:08;;;;;;;;;;;13.30;99.90;;;;;;5094649;28;20008;-63
2023/05/09 05:41:33;;;;;;;;;;;13.40;99.90;;;;;;5094579;28;19981;-64
2023/05/09 05:43:59;;;;;;;;;;;13.50;99.90;;;;;;5094228;28;19985;-64
2023/05/09 05:46:24;;;;;;;;;;;13.60;99.90;;;;;;5093003;28;20443;-62
2023/05/09 05:48:50;;;;;;;;;;;13.70;99.90;;;;;;5094687;28;19992;-64
2023/05/09 05:51:15;;;;;;;;;;;13.90;99.90;;;;;;5094211;28;19985;-66
2023/05/09 05:53:41;;;;;;;;;;;13.80;99.90;;;;;;5094130;28;20063;-67
2023/05/09 05:56:07;;;;;;;;;;;14.00;99.90;;;;;;5092743;28;20034;-66
2023/05/09 05:58:32;;;;;;;;;;;14.10;99.90;;;;;;5093020;28;20005;-63
2023/05/09 06:00:58;;;;;;;;;;;14.30;99.90;;;;;;5091035;28;20028;-67
2023/05/09 06:03:23;;;;;;;;;;;14.50;99.90;;;;;;5092399;28;20075;-66
2023/05/09 06:05:49;;;;;;;;;;;14.60;99.90;;;;;;5092772;28;19985;-62
2023/05/09 06:08:15;;;;;;;;;;;14.80;99.90;;;;;;5081867;28;20041;-66
2023/05/09 06:10:41;;;;;;;;;;;14.90;99.90;;;;;;5073045;28;19992;-63
2023/05/09 06:13:06;;;;;;;;;;;15.10;99.90;;;;;;5072675;28;20479;-63
2023/05/09 06:15:32;;;;;;;;;;;15.20;99.90;;;;;;5071481;28;19992;-63
2023/05/09 06:17:58;;;;;;;;;;;15.50;99.90;;;;;;5072007;28;20059;-63
2023/05/09 06:20:23;;;;;;;;;;;15.80;99.90;;;;;;5071898;28;20490;-65
2023/05/09 06:22:49;;;;;;;;;;;16.00;99.90;;;;;;5089750;28;20020;-62
2023/05/09 06:25:14;;;;;;;;;;;15.90;99.90;;;;;;5091910;28;19981;-67
2023/05/09 06:27:40;;;;;;;;;;;15.90;99.90;;;;;;5093863;28;20505;-67
2023/05/09 06:30:06;;;;;;;;;;;16.00;99.90;;;;;;5093678;28;20030;-65
2023/05/09 06:32:32;;;;;;;;;;;16.00;99.90;;;;;;5094043;28;19988;-66
2023/05/09 06:34:57;;;;;;;;;;;16.10;99.90;;;;;;5091878;28;19981;-61
2023/05/09 06:37:23;;;;;;;;;;;16.40;99.90;;;;;;5091063;28;20017;-66
2023/05/09 06:39:50;;;;;;;;;;;16.60;99.90;;;;;;5090642;28;20381;-65
2023/05/09 06:42:16;;;;;;;;;;;16.90;99.90;;;;;;5091277;28;20102;-67
2023/05/09 06:44:42;;;;;;;;;;;17.00;99.90;;;;;;5092569;28;19996;-65
2023/05/09 06:47:08;;;;;;;;;;;17.00;99.90;;;;;;5091459;28;20495;-65
2023/05/09 06:49:34;;;;;;;;;;;16.90;99.90;;;;;;5091207;28;19987;-63
2023/05/09 06:51:59;;;;;;;;;;;16.90;99.90;;;;;;5091293;28;19985;-66
2023/05/09 06:54:25;;;;;;;;;;;17.00;99.90;;;;;;5090854;28;19993;-63
2023/05/09 06:56:51;;;;;;;;;;;17.20;99.90;;;;;;5081506;28;20035;-68
2023/05/09 06:59:16;;;;;;;;;;;17.50;99.90;;;;;;5076056;28;20006;-63
2023/05/09 07:01:42;;;;;;;;;;;17.90;99.90;;;;;;5077478;28;20005;-68
2023/05/09 07:04:07;;;;;;;;;;;17.90;99.90;;;;;;5086438;28;19984;-65
2023/05/09 07:06:33;;;;;;;;;;;18.20;99.90;;;;;;5075756;28;19986;-63
2023/05/09 07:08:58;;;;;;;;;;;19.00;99.90;;;;;;5071675;28;20377;-67
2023/05/09 07:11:24;;;;;;;;;;;19.70;95.60;;;;;;5071758;28;20426;-63
2023/05/09 07:13:49;;;;;;;;;;;20.70;81.30;;;;;;5071024;28;20367;-66
2023/05/09 07:16:17;;;;;;;;;;;21.40;74.10;;;;;;5070044;28;19988;-63
2023/05/09 07:18:42;;;;;;;;;;;21.50;68.30;;;;;;5083578;28;20087;-61
2023/05/09 07:21:08;;;;;;;;;;;21.80;70.30;;;;;;5073069;28;19986;-65
2023/05/09 07:23:33;;;;;;;;;;;22.10;65.10;;;;;;5073320;28;19988;-65
2023/05/09 07:26:00;;;;;;;;;;;22.60;62.30;;;;;;5073546;28;19990;-66
2023/05/09 07:28:25;;;;;;;;;;;22.80;61.70;;;;;;5080897;28;20098;-67
2023/05/09 07:30:51;;;;;;;;;;;22.80;59.00;;;;;;5105237;28;19984;-67
2023/05/09 07:33:17;;;;;;;;;;;22.50;60.30;;;;;;5104969;28;19985;-63
2023/05/09 07:35:42;;;;;;;;;;;22.30;60.50;;;;;;5106909;28;20030;-68
2023/05/09 07:38:08;;;;;;;;;;;22.40;65.00;;;;;;5100551;28;20063;-63
2023/05/09 07:40:35;;;;;;;;;;;22.90;65.90;;;;;;5104972;28;19985;-65
2023/05/09 07:43:01;;;;;;;;;;;23.30;59.90;;;;;;5099927;28;19998;-65
2023/05/09 07:45:27;;;;;;;;;;;23.70;57.00;;;;;;5092742;28;19993;-65
2023/05/09 07:47:52;;;;;;;;;;;23.90;56.90;;;;;;5092135;28;20428;-64
2023/05/09 07:50:18;;;;;;;;;;;24.20;56.50;;;;;;5082518;28;19997;-67
2023/05/09 07:52:43;;;;;;;;;;;24.60;54.70;;;;;;5104376;28;19985;-63
2023/05/09 07:55:11;;;;;;;;;;;24.60;55.20;;;;;;5106544;28;20009;-63
2023/05/09 07:57:37;;;;;;;;;;;24.90;53.70;;;;;;5102652;28;20005;-65
2023/05/09 08:00:05;;;;;;;;;;;25.20;53.10;;;;;;5093868;28;20018;-61
2023/05/09 08:02:30;;;;;;;;;;;25.30;52.40;;;;;;5086993;28;20111;-63
2023/05/09 08:04:56;;;;;;;;;;;25.20;51.60;;;;;;5092175;28;20549;-62
2023/05/09 08:07:21;;;;;;;;;;;25.00;51.30;;;;;;5091744;28;19985;-64
2023/05/09 08:09:47;;;;;;;;;;;25.40;49.80;;;;;;5090256;28;20359;-63
2023/05/09 08:12:12;;;;;;;;;;;25.80;51.00;;;;;;5076657;28;20096;-65
2023/05/09 08:14:38;;;;;;;;;;;25.80;49.90;;;;;;5082315;28;19985;-63
2023/05/09 08:17:03;;;;;;;;;;;25.50;49.60;;;;;;5102546;28;19996;-61
2023/05/09 08:19:29;;;;;;;;;;;24.40;50.00;;;;;;5092910;28;19993;-64
2023/05/09 08:21:55;;;;;;;;;;;24.30;50.70;;;;;;5098743;28;20026;-64
2023/05/09 08:24:20;;;;;;;;;;;24.40;50.20;;;;;;5091988;28;19992;-63
2023/05/09 08:26:46;;;;;;;;;;;24.00;51.30;;;;;;5078567;28;20076;-60
2023/05/09 08:29:12;;;;;;;;;;;23.80;50.80;;;;;;5112569;28;19986;-63
2023/05/09 08:31:37;;;;;;;;;;;23.40;51.60;;;;;;5094594;28;19989;-62
2023/05/09 08:34:03;;;;;;;;;;;23.20;53.30;;;;;;5095355;28;20046;-67
2023/05/09 08:36:29;;;;;;;;;;;23.80;52.80;;;;;;5097558;28;20110;-65
2023/05/09 08:38:55;;;;;;;;;;;23.80;51.00;;;;;;5088861;28;20073;-64
2023/05/09 08:41:27;;;;;;;;;;;23.50;52.10;;;;;;5092781;28;20408;-62
2023/05/09 08:43:55;;;;;;;;;;;22.90;52.70;;;;;;5083599;28;20083;-63
2023/05/09 08:46:27;;;;;;;;;;;22.70;52.20;;;;;;5099300;28;19985;-64
2023/05/09 08:48:55;;;;;;;;;;;22.40;52.60;;;;;;5095998;28;19985;-62
2023/05/09 08:51:21;;;;;;;;;;;22.10;54.50;;;;;;5086784;28;20382;-66
2023/05/09 08:53:47;;;;;;;;;;;21.80;54.70;;;;;;5082965;28;19999;-67
2023/05/09 08:56:13;;;;;;;;;;;21.60;55.10;;;;;;5095335;28;19985;-67
2023/05/09 08:58:39;;;;;;;;;;;21.80;56.20;;;;;;5100694;28;20027;-67
2023/05/09 09:01:05;;;;;;;;;;;22.90;53.10;;;;;;5092053;28;20000;-63
2023/05/09 09:03:31;;;;;;;;;;;23.20;52.90;;;;;;5084778;28;20498;-62
2023/05/09 09:06:09;;;;;;;;;;;24.20;51.30;;;;;;5098436;28;19996;-66
2023/05/09 09:08:34;;;;;;;;;;;24.60;49.60;;;;;;5111509;28;20046;-63
2023/05/09 09:11:00;;;;;;;;;;;24.50;49.60;;;;;;5094928;28;20467;-65
2023/05/09 09:13:26;;;;;;;;;;;23.70;50.50;;;;;;5086161;28;20459;-64
2023/05/09 09:15:53;;;;;;;;;;;23.60;50.20;;;;;;5091518;28;20451;-62
2023/05/09 09:18:22;;;;;;;;;;;23.30;50.50;;;;;;5095605;28;20008;-63
2023/05/09 09:21:01;;;;;;;;;;;22.50;52.00;;;;;;5077791;28;19996;-63
2023/05/09 09:23:27;;;;;;;;;;;22.20;54.10;;;;;;5110400;28;20103;-62
2023/05/09 09:25:57;;;;;;;;;;;22.30;54.20;;;;;;5091013;28;21703;-63
2023/05/09 09:28:26;;;;;;;;;;;22.30;52.20;;;;;;5090443;28;19993;-63
2023/05/09 09:30:55;;;;;;;;;;;22.20;54.30;;;;;;5093677;28;20332;-61
2023/05/09 09:33:22;;;;;;;;;;;21.90;52.40;;;;;;5084254;28;19996;-63
2023/05/09 09:35:49;;;;;;;;;;;21.70;54.40;;;;;;5084945;28;20451;-63
2023/05/09 09:38:15;;;;;;;;;;;21.50;53.90;;;;;;5097008;28;20054;-63
2023/05/09 09:40:51;;;;;;;;;;;21.40;55.00;;;;;;5101525;28;19981;-63
2023/05/09 09:43:17;;;;;;;;;;;21.30;54.70;;;;;;5097180;28;20003;-61
2023/05/09 09:45:42;;;;;;;;;;;21.10;54.80;;;;;;5089369;28;20465;-62
2023/05/09 09:48:08;;;;;;;;;;;21.00;55.90;;;;;;5091341;28;20004;-61
2023/05/09 09:50:34;;;;;;;;;;;20.90;55.80;;;;;;5087612;28;19996;-61
2023/05/09 09:52:59;;;;;;;;;;;21.10;56.40;;;;;;5086604;28;20606;-61
2023/05/09 09:55:25;;;;;;;;;;;21.20;56.30;;;;;;5084979;28;20522;-63
2023/05/09 09:57:51;;;;;;;;;;;21.30;55.70;;;;;;5090570;28;20097;-62
2023/05/09 10:00:27;;;;;;;;;;;21.20;55.10;;;;;;5108066;28;20001;-62
2023/05/09 10:02:57;;;;;;;;;;;21.20;55.90;;;;;;5103992;28;20000;-62
2023/05/09 10:05:25;;;;;;;;;;;21.20;55.60;;;;;;5090286;28;20453;-61
2023/05/09 10:08:01;;;;;;;;;;;21.20;55.00;;;;;;5108378;28;20000;-63
2023/05/09 10:10:28;;;;;;;;;;;21.30;56.70;;;;;;5111190;28;19980;-62
2023/05/09 10:12:56;;;;;;;;;;;21.40;55.50;;;;;;5111625;28;19984;-62
2023/05/09 10:15:22;;;;;;;;;;;21.40;53.20;;;;;;5111880;28;19999;-61
2023/05/09 10:17:54;;;;;;;;;;;21.30;53.10;;;;;;5112710;28;20011;-62
2023/05/09 10:20:20;;;;;;;;;;;21.50;54.60;;;;;;5112161;28;19992;-63
2023/05/09 10:22:45;;;;;;;;;;;21.50;52.60;;;;;;5101205;28;19981;-62
2023/05/09 10:25:21;;;;;;;;;;;22.10;53.20;;;;;;5082361;28;19996;-62
2023/05/09 10:27:47;;;;;;;;;;;22.90;53.50;;;;;;5080908;28;19992;-62
2023/05/09 10:30:32;;;;;;;;;;;23.30;53.30;;;;;;5077532;28;19993;-63
2023/05/09 10:33:18;;;;;;;;;;;23.10;49.70;;;;;;5090741;28;20650;-63
2023/05/09 10:35:45;;;;;;;;;;;23.40;52.10;;;;;;5089613;28;19989;-62
2023/05/09 10:38:11;;;;;;;;;;;23.60;50.30;;;;;;5090094;28;20021;-61
2023/05/09 10:40:37;;;;;;;;;;;23.30;49.20;;;;;;5090246;28;19981;-63
2023/05/09 10:43:04;;;;;;;;;;;23.00;50.80;;;;;;5091904;28;19988;-63
2023/05/09 10:45:30;;;;;;;;;;;22.70;51.60;;;;;;5090681;28;19993;-62
2023/05/09 10:47:56;;;;;;;;;;;22.50;50.10;;;;;;5092887;28;19992;-62
2023/05/09 10:50:22;;;;;;;;;;;22.30;49.70;;;;;;5089655;28;19989;-62
2023/05/09 10:53:06;;;;;;;;;;;22.00;49.70;;;;;;5090652;28;20107;-61
2023/05/09 10:55:38;;;;;;;;;;;21.80;51.00;;;;;;5092524;28;20411;-63
2023/05/09 10:58:35;;;;;;;;;;;22.00;51.90;;;;;;5091898;28;20009;-62
2023/05/09 11:01:02;;;;;;;;;;;22.00;54.00;;;;;;5086832;28;20001;-62
2023/05/09 11:03:29;;;;;;;;;;;21.90;53.20;;;;;;5091021;28;19987;-61
2023/05/09 11:05:55;;;;;;;;;;;22.10;51.80;;;;;;5093390;28;20083;-62
2023/05/09 11:08:24;;;;;;;;;;;22.00;51.70;;;;;;5096401;28;19989;-62
2023/05/09 11:10:50;;;;;;;;;;;22.10;52.10;;;;;;5095606;28;20083;-61
2023/05/09 11:13:23;;;;;;;;;;;22.10;51.80;;;;;;5096387;28;19990;-61
2023/05/09 11:15:58;;;;;;;;;;;22.20;50.60;;;;;;5095986;28;20400;-61
2023/05/09 11:18:23;;;;;;;;;;;22.30;51.30;;;;;;5093826;28;20007;-62
2023/05/09 11:20:50;;;;;;;;;;;22.30;52.00;;;;;;5075048;28;19986;-63
2023/05/09 11:23:17;;;;;;;;;;;22.40;52.10;;;;;;5073942;28;19989;-61
2023/05/09 11:25:47;;;;;;;;;;;22.60;50.60;;;;;;5073569;28;20080;-62
2023/05/09 11:28:24;;;;;;;;;;;22.80;52.00;;;;;;5083061;28;19981;-62
2023/05/09 11:30:51;;;;;;;;;;;23.10;51.90;;;;;;5091033;28;19996;-62
2023/05/09 11:33:20;;;;;;;;;;;23.40;51.60;;;;;;5103037;28;19985;-60
2023/05/09 11:35:47;;;;;;;;;;;23.70;49.80;;;;;;5114668;28;20508;-61
2023/05/09 11:38:19;;;;;;;;;;;23.60;50.80;;;;;;5101192;28;20056;-61
2023/05/09 11:40:44;;;;;;;;;;;23.40;50.40;;;;;;5095428;28;19988;-62
2023/05/09 11:43:11;;;;;;;;;;;23.10;50.00;;;;;;5097118;28;19981;-62
2023/05/09 11:45:37;;;;;;;;;;;23.00;50.30;;;;;;5111407;28;20091;-61
2023/05/09 11:48:07;;;;;;;;;;;22.90;50.50;;;;;;5116218;28;20029;-62
2023/05/09 11:50:33;;;;;;;;;;;22.90;50.50;;;;;;5109190;28;19989;-60
2023/05/09 11:52:58;;;;;;;;;;;22.90;50.40;;;;;;5099728;28;19992;-62
2023/05/09 11:55:24;;;;;;;;;;;22.90;50.60;;;;;;5106512;28;19981;-61
2023/05/09 11:57:51;;;;;;;;;;;22.80;51.20;;;;;;5090059;28;20009;-61
2023/05/09 12:00:17;;;;;;;;;;;22.70;50.20;;;;;;5096367;28;20003;-60
2023/05/09 12:02:43;;;;;;;;;;;22.60;48.60;;;;;;5089953;28;19989;-61
2023/05/09 12:05:10;;;;;;;;;;;22.60;48.90;;;;;;5078100;28;19988;-65
2023/05/09 12:07:36;;;;;;;;;;;22.20;49.60;;;;;;5091892;28;19989;-63
2023/05/09 12:10:04;;;;;;;;;;;22.00;49.70;;;;;;5094477;28;19994;-62
2023/05/09 12:12:32;;;;;;;;;;;22.00;51.10;;;;;;5094066;28;20035;-64
2023/05/09 12:15:07;;;;;;;;;;;22.00;51.10;;;;;;5091498;28;20072;-63
2023/05/09 12:17:37;;;;;;;;;;;22.00;51.70;;;;;;5092566;28;20483;-62
2023/05/09 12:20:05;;;;;;;;;;;22.10;50.80;;;;;;5093881;28;20954;-62
2023/05/09 12:22:32;;;;;;;;;;;22.00;50.30;;;;;;5082882;28;20035;-63
2023/05/09 12:25:00;;;;;;;;;;;21.90;51.00;;;;;;5080384;28;19991;-62
2023/05/09 12:27:27;;;;;;;;;;;21.80;51.00;;;;;;5093590;28;19992;-61
2023/05/09 12:29:53;;;;;;;;;;;22.00;50.70;;;;;;5094990;28;20042;-62
2023/05/09 12:32:19;;;;;;;;;;;22.20;51.80;;;;;;5091809;28;20038;-61
2023/05/09 12:34:47;;;;;;;;;;;22.40;50.40;;;;;;5081762;28;20348;-61
2023/05/09 12:37:13;;;;;;;;;;;22.60;51.40;;;;;;5083882;28;20466;-62
2023/05/09 12:39:40;;;;;;;;;;;22.70;50.40;;;;;;5089497;28;20426;-63
2023/05/09 12:42:11;;;;;;;;;;;22.60;49.20;;;;;;5097616;28;19985;-63
2023/05/09 12:44:36;;;;;;;;;;;22.50;48.20;;;;;;5094743;28;20012;-63
2023/05/09 12:47:02;;;;;;;;;;;22.40;48.90;;;;;;5093307;28;20439;-63
2023/05/09 12:49:28;;;;;;;;;;;22.40;47.60;;;;;;5084514;28;20075;-62
2023/05/09 12:51:55;;;;;;;;;;;22.40;48.40;;;;;;5094116;28;19989;-64
2023/05/09 12:54:24;;;;;;;;;;;22.40;48.20;;;;;;5093040;28;20110;-64
2023/05/09 12:56:55;;;;;;;;;;;22.40;49.20;;;;;;5093218;28;20486;-63
2023/05/09 12:59:25;;;;;;;;;;;22.60;48.70;;;;;;5092268;28;20052;-63
2023/05/09 13:02:00;;;;;;;;;;;22.80;49.00;;;;;;5089918;28;19997;-62
2023/05/09 13:04:27;;;;;;;;;;;22.90;47.60;;;;;;5090963;28;19996;-63
2023/05/09 13:06:54;;;;;;;;;;;22.90;47.50;;;;;;5091836;28;20079;-61
2023/05/09 13:09:20;;;;;;;;;;;23.10;47.00;;;;;;5091662;28;20440;-61
2023/05/09 13:11:46;;;;;;;;;;;23.10;46.40;;;;;;5091467;28;19985;-63
2023/05/09 13:14:12;;;;;;;;;;;23.10;47.00;;;;;;5093071;28;19985;-64
2023/05/09 13:16:38;;;;;;;;;;;23.20;46.30;;;;;;5094388;28;19981;-62
2023/05/09 13:19:04;;;;;;;;;;;23.30;47.20;;;;;;5094671;28;20116;-61
2023/05/09 13:21:30;;;;;;;;;;;23.50;47.30;;;;;;5094705;28;19992;-63
2023/05/09 13:23:55;;;;;;;;;;;23.40;46.70;;;;;;5093888;28;20453;-62
2023/05/09 13:26:21;;;;;;;;;;;23.10;46.70;;;;;;5095747;28;20072;-62
2023/05/09 13:28:47;;;;;;;;;;;23.20;46.70;;;;;;5094911;28;20030;-64
2023/05/09 13:31:12;;;;;;;;;;;23.10;45.10;;;;;;5095124;28;19985;-62
2023/05/09 13:33:38;;;;;;;;;;;23.00;44.80;;;;;;5095174;28;19988;-63
2023/05/09 13:36:05;;;;;;;;;;;22.80;44.60;;;;;;5094671;28;20490;-62
2023/05/09 13:38:31;;;;;;;;;;;22.50;46.00;;;;;;5094977;28;20005;-63
2023/05/09 13:40:57;;;;;;;;;;;22.50;47.20;;;;;;5095306;28;20111;-62
2023/05/09 13:43:22;;;;;;;;;;;22.60;45.90;;;;;;5095126;28;19989;-63
2023/05/09 13:45:48;;;;;;;;;;;22.90;45.60;;;;;;5094848;28;20068;-63
2023/05/09 13:48:13;;;;;;;;;;;23.10;46.20;;;;;;5094967;28;19981;-62
2023/05/09 13:50:39;;;;;;;;;;;23.40;44.70;;;;;;5094668;28;19981;-63
2023/05/09 13:53:04;;;;;;;;;;;23.30;43.80;;;;;;5094658;28;19981;-63
2023/05/09 13:55:30;;;;;;;;;;;23.20;45.20;;;;;;5094815;28;19988;-63
2023/05/09 13:57:56;;;;;;;;;;;22.90;44.20;;;;;;5094548;28;20009;-63
2023/05/09 14:00:23;;;;;;;;;;;22.70;46.20;;;;;;5094475;28;20008;-64
2023/05/09 14:02:50;;;;;;;;;;;22.60;46.10;;;;;;5094711;28;19988;-64
2023/05/09 14:05:15;;;;;;;;;;;22.40;46.20;;;;;;5094342;28;19981;-63
2023/05/09 14:07:41;;;;;;;;;;;22.20;44.90;;;;;;5094427;28;19985;-63
2023/05/09 14:10:07;;;;;;;;;;;22.00;46.40;;;;;;5094429;28;19981;-63
2023/05/09 14:12:32;;;;;;;;;;;22.00;46.50;;;;;;5094689;28;20046;-62
2023/05/09 14:14:58;;;;;;;;;;;22.10;45.70;;;;;;5094237;28;20038;-63